Sirius — V7KI6 — position and weather

sailwx.info

Track history (hours):
 
Tides and Currents Weather Stations Pressure Air Temp Water Temp Dewpoint Dewpoint Depression Visibility Wind Speed Wind Dir Waves Ship Positions

Sirius

Last reported at 2015-Aug-25 13:07 UTC. Time now 2015-Aug-29 14:46 UTC.
Position N 34°30' E 033°31'.

Length 178.1 m; beam 28.2 m; draft 11.5 m.

Type: Cargo ship. MMSI: 538090245.

Date/timePositionNaut miles runAvg speedWind from/ knotsBaromVisibWave heightAir tempDewpointWater temp
2015-Aug-25 13:07N 34°30' E 033°31'916.8
2015-Aug-25 12:34N 34°34' E 033°20'1615.8
2015-Aug-25 11:34N 34°39' E 033°02'1 0.4
2015-Aug-25 08:33N 34°39' E 033°01'0 0.0
2015-Aug-25 07:33N 34°39' E 033°01'0 0.0
2015-Aug-25 06:30N 34°39' E 033°01'0 0.0
2015-Aug-25 05:33N 34°39' E 033°01'0 0.4
2015-Aug-25 04:33N 34°39' E 033°02'3 2.8
2015-Aug-25 03:33N 34°39' E 033°05'0 0.5
2015-Aug-25 02:33N 34°40' E 033°05'0 0.4
2015-Aug-25 01:32N 34°40' E 033°05'1 0.8
2015-Aug-25 00:33N 34°39' E 033°06'7 7.5
2015-Aug-24 23:34N 34°32' E 033°08'  
2015-Aug-21 20:32N 31°09' E 029°47'0 0.0
2015-Aug-21 18:08N 31°09' E 029°47'0 0.2
2015-Aug-21 17:32N 31°09' E 029°48'8 4.2
2015-Aug-21 15:33N 31°17' E 029°45'74417.3
2015-Aug-19 20:32N 35°27' E 015°46'1717.5
2015-Aug-19 19:33N 35°33' E 015°26'1817.7
2015-Aug-19 18:33N 35°39' E 015°06'1817.6
2015-Aug-19 17:33N 35°45' E 014°45'12 8.6
2015-Aug-19 16:11N 35°49' E 014°32'0 0.0
2015-Aug-19 15:29N 35°49' E 014°32'0 0.0
2015-Aug-19 14:33N 35°49' E 014°32'0 0.0
2015-Aug-19 13:32N 35°49' E 014°32'0 0.0
2015-Aug-19 12:31N 35°49' E 014°32'0 0.0
2015-Aug-19 11:31N 35°49' E 014°32'0 0.0
2015-Aug-19 10:28N 35°49' E 014°32'0 0.0
2015-Aug-19 03:10N 35°49' E 014°32'0 0.0
2015-Aug-18 21:18N 35°49' E 014°32'1 0.7
2015-Aug-18 20:34N 35°49' E 014°33'0 0.0
2015-Aug-18 19:34N 35°49' E 014°33'0 0.0
2015-Aug-18 18:34N 35°49' E 014°33'0 0.0
2015-Aug-18 17:07N 35°49' E 014°33'0 0.0
2015-Aug-18 14:23N 35°49' E 014°33'0 0.0
2015-Aug-18 13:29N 35°49' E 014°33'0 0.0
2015-Aug-18 11:26N 35°49' E 014°33'0 0.0
2015-Aug-18 10:32N 35°49' E 014°33'0 0.0
2015-Aug-17 22:25N 35°49' E 014°33'0 0.0
2015-Aug-17 21:31N 35°49' E 014°33'0 0.0
2015-Aug-17 20:34N 35°49' E 014°33'0 0.0
2015-Aug-17 19:31N 35°49' E 014°33'0 0.0
2015-Aug-17 18:25N 35°49' E 014°33'0 0.0
2015-Aug-17 09:27N 35°49' E 014°32'4 4.3
2015-Aug-17 08:28N 35°48' E 014°37'4 4.0
2015-Aug-17 07:23N 35°50' E 014°42'0 0.0
2015-Aug-17 06:23N 35°50' E 014°42'0 0.0
2015-Aug-17 05:32N 35°50' E 014°42'0 0.0
2015-Aug-17 04:32N 35°50' E 014°42'0 0.0
2015-Aug-17 03:32N 35°50' E 014°42'0 0.0
2015-Aug-17 02:32N 35°50' E 014°42'0 0.0
2015-Aug-17 01:32N 35°50' E 014°42'0 0.0
2015-Aug-17 00:32N 35°50' E 014°42'0 0.0
2015-Aug-16 23:32N 35°50' E 014°42'0 0.0
2015-Aug-16 22:32N 35°50' E 014°42'0 0.0
2015-Aug-16 21:32N 35°50' E 014°42'0 0.0
2015-Aug-16 20:32N 35°50' E 014°42'0 0.1
2015-Aug-16 19:32N 35°50' E 014°42'0 0.0
2015-Aug-16 18:29N 35°50' E 014°42'2 1.7
2015-Aug-16 17:33N 35°49' E 014°43'4117.1
2015-Aug-16 15:08N 35°41' E 015°32'1017.6
2015-Aug-16 14:33N 35°39' E 015°45'16416.1
2015-Aug-16 04:22N 35°16' E 019°04'1617.1
2015-Aug-16 03:27N 35°13' E 019°23'1617.4
2015-Aug-16 02:33N 35°11' E 019°42'  
Track history (hours):
 
Tides and Currents Weather Stations Pressure Air Temp Water Temp Dewpoint Dewpoint Depression Visibility Wind Speed Wind Dir Waves Ship Positions

Sirius

Last reported at 2015-Aug-25 13:07 UTC. Time now 2015-Aug-29 14:46 UTC.
Position N 34°30' E 033°31'.

Length 178.1 m; beam 28.2 m; draft 11.5 m.

Type: Cargo ship. MMSI: 538090245.

Date/timePositionNaut miles runAvg speedWind from/ knotsBaromVisibWave heightAir tempDewpointWater temp
2015-Aug-25 13:07N 34°30' E 033°31'916.8
2015-Aug-25 12:34N 34°34' E 033°20'1615.8
2015-Aug-25 11:34N 34°39' E 033°02'1 0.4
2015-Aug-25 08:33N 34°39' E 033°01'0 0.0
2015-Aug-25 07:33N 34°39' E 033°01'0 0.0
2015-Aug-25 06:30N 34°39' E 033°01'0 0.0
2015-Aug-25 05:33N 34°39' E 033°01'0 0.4
2015-Aug-25 04:33N 34°39' E 033°02'3 2.8
2015-Aug-25 03:33N 34°39' E 033°05'0 0.5
2015-Aug-25 02:33N 34°40' E 033°05'0 0.4
2015-Aug-25 01:32N 34°40' E 033°05'1 0.8
2015-Aug-25 00:33N 34°39' E 033°06'7 7.5
2015-Aug-24 23:34N 34°32' E 033°08'  
2015-Aug-21 20:32N 31°09' E 029°47'0 0.0
2015-Aug-21 18:08N 31°09' E 029°47'0 0.2
2015-Aug-21 17:32N 31°09' E 029°48'8 4.2
2015-Aug-21 15:33N 31°17' E 029°45'74417.3
2015-Aug-19 20:32N 35°27' E 015°46'1717.5
2015-Aug-19 19:33N 35°33' E 015°26'1817.7
2015-Aug-19 18:33N 35°39' E 015°06'1817.6
2015-Aug-19 17:33N 35°45' E 014°45'12 8.6
2015-Aug-19 16:11N 35°49' E 014°32'0 0.0
2015-Aug-19 15:29N 35°49' E 014°32'0 0.0
2015-Aug-19 14:33N 35°49' E 014°32'0 0.0
2015-Aug-19 13:32N 35°49' E 014°32'0 0.0
2015-Aug-19 12:31N 35°49' E 014°32'0 0.0
2015-Aug-19 11:31N 35°49' E 014°32'0 0.0
2015-Aug-19 10:28N 35°49' E 014°32'0 0.0
2015-Aug-19 03:10N 35°49' E 014°32'0 0.0
2015-Aug-18 21:18N 35°49' E 014°32'1 0.7
2015-Aug-18 20:34N 35°49' E 014°33'0 0.0
2015-Aug-18 19:34N 35°49' E 014°33'0 0.0
2015-Aug-18 18:34N 35°49' E 014°33'0 0.0
2015-Aug-18 17:07N 35°49' E 014°33'0 0.0
2015-Aug-18 14:23N 35°49' E 014°33'0 0.0
2015-Aug-18 13:29N 35°49' E 014°33'0 0.0
2015-Aug-18 11:26N 35°49' E 014°33'0 0.0
2015-Aug-18 10:32N 35°49' E 014°33'0 0.0
2015-Aug-17 22:25N 35°49' E 014°33'0 0.0
2015-Aug-17 21:31N 35°49' E 014°33'0 0.0
2015-Aug-17 20:34N 35°49' E 014°33'0 0.0
2015-Aug-17 19:31N 35°49' E 014°33'0 0.0
2015-Aug-17 18:25N 35°49' E 014°33'0 0.0
2015-Aug-17 09:27N 35°49' E 014°32'4 4.3
2015-Aug-17 08:28N 35°48' E 014°37'4 4.0
2015-Aug-17 07:23N 35°50' E 014°42'0 0.0
2015-Aug-17 06:23N 35°50' E 014°42'0 0.0
2015-Aug-17 05:32N 35°50' E 014°42'0 0.0
2015-Aug-17 04:32N 35°50' E 014°42'0 0.0
2015-Aug-17 03:32N 35°50' E 014°42'0 0.0
2015-Aug-17 02:32N 35°50' E 014°42'0 0.0
2015-Aug-17 01:32N 35°50' E 014°42'0 0.0
2015-Aug-17 00:32N 35°50' E 014°42'0 0.0
2015-Aug-16 23:32N 35°50' E 014°42'0 0.0
2015-Aug-16 22:32N 35°50' E 014°42'0 0.0
2015-Aug-16 21:32N 35°50' E 014°42'0 0.0
2015-Aug-16 20:32N 35°50' E 014°42'0 0.1
2015-Aug-16 19:32N 35°50' E 014°42'0 0.0
2015-Aug-16 18:29N 35°50' E 014°42'2 1.7
2015-Aug-16 17:33N 35°49' E 014°43'4117.1
2015-Aug-16 15:08N 35°41' E 015°32'1017.6
2015-Aug-16 14:33N 35°39' E 015°45'16416.1
2015-Aug-16 04:22N 35°16' E 019°04'1617.1
2015-Aug-16 03:27N 35°13' E 019°23'1617.4
2015-Aug-16 02:33N 35°11' E 019°42'  

Dump ship's entire track history